createdAt,value
2022-10-21T00:00:45.011Z,0
2022-10-21T00:01:45.014Z,0
2022-10-21T00:02:45.017Z,0
2022-10-21T00:03:45.009Z,0
2022-10-21T00:04:45.002Z,0
2022-10-21T00:05:45.045Z,0
2022-10-21T00:06:45.023Z,0
2022-10-21T00:07:44.999Z,0
2022-10-21T00:08:45.021Z,0
2022-10-21T00:09:45.004Z,0
2022-10-21T00:10:45.048Z,0
2022-10-21T00:11:45.028Z,0
2022-10-21T00:12:44.999Z,0
2022-10-21T00:13:45.007Z,0
2022-10-21T00:14:45.003Z,0
2022-10-21T00:15:45.044Z,0
2022-10-21T00:16:45.003Z,0
2022-10-21T00:17:45.003Z,0
2022-10-21T00:18:45.003Z,0
2022-10-21T00:19:44.998Z,0
2022-10-21T00:20:45.016Z,0
2022-10-21T00:21:45.030Z,0
2022-10-21T00:22:45.002Z,0
2022-10-21T00:23:45.023Z,0
2022-10-21T00:24:45.020Z,0
2022-10-21T00:25:45.042Z,0
2022-10-21T00:26:45.013Z,0
2022-10-21T00:27:45.024Z,0
2022-10-21T00:28:45.025Z,0
2022-10-21T00:29:45.025Z,0
2022-10-21T00:30:45.019Z,0
2022-10-21T00:31:45.020Z,0
2022-10-21T00:32:45.017Z,0
2022-10-21T00:33:45.019Z,0
2022-10-21T00:34:45.024Z,0
2022-10-21T00:35:45.046Z,0
2022-10-21T00:36:45.013Z,0
2022-10-21T00:37:45.014Z,0
2022-10-21T00:38:45.019Z,0
2022-10-21T00:39:45.016Z,0
2022-10-21T00:40:45.037Z,0
2022-10-21T00:41:45.018Z,0
2022-10-21T00:42:46.727Z,0
2022-10-21T00:43:45.012Z,0
2022-10-21T00:44:45.012Z,0
2022-10-21T00:45:45.039Z,0
2022-10-21T00:46:45.016Z,0
2022-10-21T00:47:45.146Z,0
2022-10-21T00:48:45.013Z,0
2022-10-21T00:49:45.021Z,0
2022-10-21T00:50:45.023Z,0
2022-10-21T00:51:45.023Z,0
2022-10-21T00:52:45.029Z,0
2022-10-21T00:53:45.019Z,0
2022-10-21T00:54:45.024Z,0
2022-10-21T00:55:45.033Z,0
2022-10-21T00:56:45.104Z,0
2022-10-21T00:57:45.024Z,0
2022-10-21T00:58:45.018Z,0
2022-10-21T00:59:45.022Z,0
2022-10-21T01:00:45.044Z,0
2022-10-21T01:01:45.014Z,0
2022-10-21T01:02:45.029Z,0
2022-10-21T01:03:45.018Z,0
2022-10-21T01:04:45.013Z,0
2022-10-21T01:05:45.094Z,0
2022-10-21T01:06:45.017Z,0
2022-10-21T01:07:45.383Z,0
2022-10-21T01:08:45.098Z,0
2022-10-21T01:09:45.025Z,0
2022-10-21T01:10:45.046Z,0
2022-10-21T01:11:45.024Z,0
2022-10-21T01:12:45.024Z,0
2022-10-21T01:13:45.032Z,0
2022-10-21T01:14:45.014Z,0
2022-10-21T01:15:45.011Z,0
2022-10-21T01:16:48.017Z,0
2022-10-21T01:17:45.751Z,0
2022-10-21T01:18:44.999Z,0
2022-10-21T01:19:45.000Z,0
2022-10-21T01:20:45.024Z,0
2022-10-21T01:21:45.038Z,0
2022-10-21T01:22:45.023Z,0
2022-10-21T01:23:45.036Z,0
2022-10-21T01:24:44.999Z,0
2022-10-21T01:25:45.034Z,0
2022-10-21T01:26:44.997Z,0
2022-10-21T01:27:45.007Z,0
2022-10-21T01:28:44.995Z,0
2022-10-21T01:29:45.004Z,0
2022-10-21T01:30:45.010Z,0
2022-10-21T01:31:45.018Z,0
2022-10-21T01:32:45.001Z,0
2022-10-21T01:33:45.010Z,0
2022-10-21T01:34:45.002Z,0
2022-10-21T01:35:45.042Z,0
2022-10-21T01:36:45.013Z,0
2022-10-21T01:37:45.072Z,0
2022-10-21T01:38:45.013Z,0
2022-10-21T01:39:45.016Z,0
2022-10-21T01:40:45.031Z,0
2022-10-21T01:41:45.016Z,0
2022-10-21T01:42:45.029Z,0
2022-10-21T01:43:45.048Z,0
2022-10-21T01:44:45.018Z,0
2022-10-21T01:45:45.034Z,0
2022-10-21T01:46:45.018Z,0
2022-10-21T01:47:45.018Z,0
2022-10-21T01:48:45.021Z,0
2022-10-21T01:49:45.019Z,0
2022-10-21T01:50:45.036Z,0
2022-10-21T01:51:45.016Z,0
2022-10-21T01:52:45.016Z,0
2022-10-21T01:53:45.020Z,0
2022-10-21T01:54:45.027Z,0
2022-10-21T01:55:45.035Z,0
2022-10-21T01:56:45.014Z,0
2022-10-21T01:57:45.019Z,0
2022-10-21T01:58:45.016Z,0
2022-10-21T01:59:45.019Z,0
2022-10-21T02:00:45.108Z,0
2022-10-21T02:01:45.011Z,0
2022-10-21T02:02:45.020Z,0
2022-10-21T02:03:45.014Z,0
2022-10-21T02:04:45.008Z,0
2022-10-21T02:05:45.047Z,0
2022-10-21T02:06:45.008Z,0
2022-10-21T02:07:45.021Z,0
2022-10-21T02:08:45.091Z,0
2022-10-21T02:09:45.022Z,0
2022-10-21T02:10:45.023Z,0
2022-10-21T02:11:45.024Z,0
2022-10-21T02:12:45.020Z,0
2022-10-21T02:13:45.027Z,0
2022-10-21T02:14:45.015Z,0
2022-10-21T02:15:45.024Z,0
2022-10-21T02:16:45.013Z,0
2022-10-21T02:17:45.008Z,0
2022-10-21T02:18:45.015Z,0
2022-10-21T02:19:45.026Z,0
2022-10-21T02:20:45.030Z,0
2022-10-21T02:21:45.017Z,0
2022-10-21T02:22:45.040Z,0
2022-10-21T02:23:45.014Z,0
2022-10-21T02:24:45.002Z,0
2022-10-21T02:25:45.037Z,0
2022-10-21T02:26:45.006Z,0
2022-10-21T02:27:45.003Z,0
2022-10-21T02:28:45.042Z,0
2022-10-21T02:29:45.076Z,0
2022-10-21T02:30:45.015Z,0
2022-10-21T02:31:45.003Z,0
2022-10-21T02:32:45.000Z,0
2022-10-21T02:33:45.057Z,0
2022-10-21T02:34:45.003Z,0
2022-10-21T02:35:45.017Z,0
2022-10-21T02:36:45.003Z,0
2022-10-21T02:37:44.998Z,0
2022-10-21T02:38:45.002Z,0
2022-10-21T02:39:45.089Z,0
2022-10-21T02:40:45.015Z,0
2022-10-21T02:41:45.002Z,0
2022-10-21T02:42:45.014Z,0
2022-10-21T02:43:45.011Z,0
2022-10-21T02:44:45.016Z,0
2022-10-21T02:45:45.024Z,0
2022-10-21T02:46:45.025Z,0
2022-10-21T02:47:45.012Z,0
2022-10-21T02:48:45.020Z,0
2022-10-21T02:49:45.018Z,0
2022-10-21T02:50:45.027Z,0
2022-10-21T02:51:45.015Z,0
2022-10-21T02:52:45.017Z,0
2022-10-21T02:53:45.026Z,0
2022-10-21T02:54:45.017Z,0
2022-10-21T02:55:45.031Z,0
2022-10-21T02:56:45.016Z,0
2022-10-21T02:57:45.015Z,0
2022-10-21T02:58:45.026Z,0
2022-10-21T02:59:45.010Z,0
2022-10-21T03:00:45.080Z,0
2022-10-21T03:01:45.018Z,0
2022-10-21T03:02:45.020Z,0
2022-10-21T03:03:45.015Z,0
2022-10-21T03:04:45.021Z,0
2022-10-21T03:05:45.066Z,0
2022-10-21T03:06:45.015Z,0
2022-10-21T03:07:45.015Z,0
2022-10-21T03:08:45.049Z,0
2022-10-21T03:09:45.017Z,0
2022-10-21T03:10:48.005Z,0
2022-10-21T03:11:45.026Z,0
2022-10-21T03:12:45.016Z,0
2022-10-21T03:13:45.012Z,0
2022-10-21T03:14:45.025Z,0
2022-10-21T03:15:45.035Z,0
2022-10-21T03:16:45.019Z,0
2022-10-21T03:17:45.013Z,0
2022-10-21T03:18:45.019Z,0
2022-10-21T03:19:45.017Z,0
2022-10-21T03:20:45.030Z,0
2022-10-21T03:21:45.019Z,0
2022-10-21T03:22:45.017Z,0
2022-10-21T03:23:45.018Z,0
2022-10-21T03:24:45.024Z,0
2022-10-21T03:25:45.038Z,0
2022-10-21T03:26:45.018Z,0
2022-10-21T03:27:45.023Z,0
2022-10-21T03:28:45.038Z,0
2022-10-21T03:29:45.018Z,0
2022-10-21T03:30:45.008Z,0
2022-10-21T03:31:45.028Z,0
2022-10-21T03:32:44.997Z,0
2022-10-21T03:33:44.995Z,0
2022-10-21T03:34:45.010Z,0
2022-10-21T03:35:45.033Z,0
2022-10-21T03:36:45.001Z,0
2022-10-21T03:37:45.044Z,0
2022-10-21T03:38:45.031Z,0
2022-10-21T03:39:45.010Z,0
2022-10-21T03:40:45.013Z,0
2022-10-21T03:41:45.003Z,0
2022-10-21T03:42:44.998Z,0
2022-10-21T03:43:45.000Z,0
2022-10-21T03:44:45.000Z,0
2022-10-21T03:45:45.014Z,0
2022-10-21T03:46:45.001Z,0
2022-10-21T03:47:44.995Z,0
2022-10-21T03:48:45.005Z,0
2022-10-21T03:49:45.029Z,0
2022-10-21T03:50:45.016Z,0
2022-10-21T03:51:44.999Z,0
2022-10-21T03:52:45.011Z,0
2022-10-21T03:53:45.012Z,0
2022-10-21T03:54:45.032Z,0
2022-10-21T03:55:45.035Z,0
2022-10-21T03:56:45.017Z,0
2022-10-21T03:57:45.009Z,0
2022-10-21T03:58:45.026Z,0
2022-10-21T03:59:45.009Z,0
2022-10-21T04:00:45.011Z,0
2022-10-21T04:01:45.084Z,0
2022-10-21T04:02:45.023Z,0
2022-10-21T04:03:45.014Z,0
2022-10-21T04:04:45.020Z,0
2022-10-21T04:05:45.036Z,0
2022-10-21T04:06:45.039Z,0
2022-10-21T04:07:49.286Z,0
2022-10-21T04:08:45.123Z,0
2022-10-21T04:09:45.017Z,0
2022-10-21T04:10:45.086Z,0
2022-10-21T04:11:45.010Z,0
2022-10-21T04:12:45.019Z,0
2022-10-21T04:13:45.017Z,0
2022-10-21T04:14:45.016Z,0
2022-10-21T04:15:45.034Z,0
2022-10-21T04:16:47.939Z,0
2022-10-21T04:17:45.012Z,0
2022-10-21T04:18:45.028Z,0
2022-10-21T04:19:45.018Z,0
2022-10-21T04:20:45.011Z,0
2022-10-21T04:21:45.010Z,0
2022-10-21T04:22:45.022Z,0
2022-10-21T04:23:45.017Z,0
2022-10-21T04:24:45.014Z,0
2022-10-21T04:25:45.035Z,0
2022-10-21T04:26:45.018Z,0
2022-10-21T04:27:45.018Z,0
2022-10-21T04:28:45.004Z,0
2022-10-21T04:29:45.020Z,0
2022-10-21T04:30:45.059Z,0
2022-10-21T04:31:45.077Z,0
2022-10-21T04:32:45.018Z,0
2022-10-21T04:33:45.013Z,0
2022-10-21T04:34:45.038Z,0
2022-10-21T04:35:45.182Z,0
2022-10-21T04:36:45.010Z,0
2022-10-21T04:37:45.018Z,0
2022-10-21T04:38:45.008Z,0
2022-10-21T04:39:45.032Z,0
2022-10-21T04:40:45.046Z,0
2022-10-21T04:41:45.022Z,0
2022-10-21T04:42:45.016Z,0
2022-10-21T04:43:45.018Z,0
2022-10-21T04:44:45.006Z,0
2022-10-21T04:45:45.016Z,0
2022-10-21T04:46:45.002Z,0
2022-10-21T04:47:45.002Z,0
2022-10-21T04:48:44.998Z,0
2022-10-21T04:49:45.005Z,0
2022-10-21T04:50:45.015Z,0
2022-10-21T04:51:44.998Z,0
2022-10-21T04:52:44.997Z,0
2022-10-21T04:53:45.000Z,0
2022-10-21T04:54:44.997Z,0
2022-10-21T04:55:45.030Z,0
2022-10-21T04:56:44.999Z,0
2022-10-21T04:57:45.012Z,0
2022-10-21T04:58:45.000Z,0
2022-10-21T04:59:45.004Z,0
2022-10-21T05:00:45.056Z,0
2022-10-21T05:01:45.006Z,0
2022-10-21T05:02:45.019Z,0
2022-10-21T05:03:45.000Z,0
2022-10-21T05:04:45.011Z,0
2022-10-21T05:05:45.016Z,0
2022-10-21T05:06:45.025Z,0
2022-10-21T05:07:45.014Z,0
2022-10-21T05:08:45.082Z,0
2022-10-21T05:09:45.014Z,0
2022-10-21T05:10:45.026Z,0
2022-10-21T05:11:45.017Z,0
2022-10-21T05:12:45.014Z,0
2022-10-21T05:13:45.009Z,0
2022-10-21T05:14:45.019Z,0
2022-10-21T05:15:45.025Z,0
2022-10-21T05:16:45.018Z,0
2022-10-21T05:17:45.011Z,0
2022-10-21T05:18:45.010Z,0
2022-10-21T05:19:45.011Z,0
2022-10-21T05:20:45.029Z,0
2022-10-21T05:21:45.066Z,0
2022-10-21T05:22:45.017Z,0
2022-10-21T05:23:45.015Z,0
2022-10-21T05:24:45.019Z,0
2022-10-21T05:25:45.094Z,0
2022-10-21T05:26:45.013Z,0
2022-10-21T05:27:45.023Z,0
2022-10-21T05:28:45.009Z,0
2022-10-21T05:29:45.011Z,0.01
2022-10-21T05:30:45.027Z,0.01
2022-10-21T05:31:45.015Z,0.01
2022-10-21T05:32:45.023Z,0.01
2022-10-21T05:33:45.014Z,0.01
2022-10-21T05:34:45.018Z,0.01
2022-10-21T05:35:45.022Z,0.01
2022-10-21T05:36:45.007Z,0.01
2022-10-21T05:37:45.026Z,0.01
2022-10-21T05:38:45.017Z,0.01
2022-10-21T05:39:45.028Z,0.02
2022-10-21T05:40:45.218Z,0.02
2022-10-21T05:41:47.794Z,0.02
2022-10-21T05:42:45.019Z,0.02
2022-10-21T05:43:45.018Z,0.03
2022-10-21T05:44:45.025Z,0.03
2022-10-21T05:45:45.053Z,0.03
2022-10-21T05:46:45.016Z,0.03
2022-10-21T05:47:45.059Z,0.04
2022-10-21T05:48:45.023Z,0.04
2022-10-21T05:49:45.014Z,0.04
2022-10-21T05:50:45.025Z,0.05
2022-10-21T05:51:45.022Z,0.05
2022-10-21T05:52:45.017Z,0.05
2022-10-21T05:53:45.013Z,0.06
2022-10-21T05:54:45.000Z,0.06
2022-10-21T05:55:45.025Z,0.07
2022-10-21T05:56:45.016Z,0.07
2022-10-21T05:57:45.065Z,0.08
2022-10-21T05:58:45.002Z,0.08
2022-10-21T05:59:44.996Z,0.08
2022-10-21T06:00:45.103Z,0.09
2022-10-21T06:01:45.012Z,0.1
2022-10-21T06:02:45.005Z,0.1
2022-10-21T06:03:45.048Z,0.11
2022-10-21T06:04:45.009Z,0.12
2022-10-21T06:05:45.025Z,0.12
2022-10-21T06:06:45.116Z,0.13
2022-10-21T06:07:44.996Z,0.14
2022-10-21T06:08:45.100Z,0.15
2022-10-21T06:09:44.995Z,0.15
2022-10-21T06:10:45.026Z,0.15
2022-10-21T06:11:45.018Z,0.15
2022-10-21T06:12:45.017Z,0.17
2022-10-21T06:13:45.018Z,0.18
2022-10-21T06:14:45.024Z,0.18
2022-10-21T06:15:50.217Z,0.2
2022-10-21T06:16:45.018Z,0.2
2022-10-21T06:17:45.008Z,0.21
2022-10-21T06:18:45.070Z,0.22
2022-10-21T06:19:47.479Z,0.22
2022-10-21T06:20:45.014Z,0.22
2022-10-21T06:21:45.012Z,0.23
2022-10-21T06:22:45.010Z,0.24
2022-10-21T06:23:45.018Z,0.24
2022-10-21T06:24:45.025Z,0.25
2022-10-21T06:25:45.037Z,0.26
2022-10-21T06:26:45.030Z,0.27
2022-10-21T06:27:45.019Z,0.28
2022-10-21T06:28:45.017Z,0.28
2022-10-21T06:29:45.007Z,0.29
2022-10-21T06:30:45.040Z,0.3
2022-10-21T06:31:45.011Z,0.31
2022-10-21T06:32:45.022Z,0.32
2022-10-21T06:33:45.013Z,0.33
2022-10-21T06:34:45.030Z,0.34
2022-10-21T06:35:45.033Z,0.35
2022-10-21T06:36:45.021Z,0.37
2022-10-21T06:37:45.009Z,0.37
2022-10-21T06:38:45.007Z,0.38
2022-10-21T06:39:45.008Z,0.4
2022-10-21T06:40:45.031Z,0.4
2022-10-21T06:41:45.040Z,0.42
2022-10-21T06:42:45.016Z,0.44
2022-10-21T06:43:45.013Z,0.45
2022-10-21T06:44:45.036Z,0.46
2022-10-21T06:45:45.059Z,0.47
2022-10-21T06:46:45.025Z,0.49
2022-10-21T06:47:45.025Z,0.51
2022-10-21T06:48:45.016Z,0.53
2022-10-21T06:49:45.008Z,0.58
2022-10-21T06:50:45.027Z,0.62
2022-10-21T06:51:45.016Z,0.68
2022-10-21T06:52:45.017Z,0.8
2022-10-21T06:53:45.007Z,0.78
2022-10-21T06:54:45.009Z,0.9
2022-10-21T06:55:45.027Z,1.07
2022-10-21T06:56:45.030Z,1.35
2022-10-21T06:57:45.014Z,1.49
2022-10-21T06:58:45.022Z,1.91
2022-10-21T06:59:44.999Z,2.07
2022-10-21T07:00:45.036Z,2.06
2022-10-21T07:01:59.818Z,2.13
2022-10-21T07:02:45.030Z,2.18
2022-10-21T07:03:45.016Z,1.99
2022-10-21T07:04:45.012Z,1.92
2022-10-21T07:05:45.024Z,1.92
2022-10-21T07:06:45.018Z,1.89
2022-10-21T07:07:45.127Z,1.92
2022-10-21T07:08:54.049Z,2.11
2022-10-21T07:09:45.077Z,2.01
2022-10-21T07:10:45.004Z,2.31
2022-10-21T07:11:45.016Z,2.31
2022-10-21T07:12:44.996Z,2.21
2022-10-21T07:13:44.998Z,2.21
2022-10-21T07:14:44.997Z,1.83
2022-10-21T07:15:45.068Z,1.53
2022-10-21T07:16:45.006Z,1.39
2022-10-21T07:17:45.004Z,1.41
2022-10-21T07:18:45.003Z,1.41
2022-10-21T07:19:44.999Z,1.31
2022-10-21T07:20:45.008Z,1.3
2022-10-21T07:21:45.012Z,1.26
2022-10-21T07:22:45.006Z,1.16
2022-10-21T07:23:44.996Z,1.17
2022-10-21T07:24:45.014Z,1.4
2022-10-21T07:25:45.016Z,1.57
2022-10-21T07:26:45.039Z,1.39
2022-10-21T07:27:47.593Z,1.11
2022-10-21T07:28:45.021Z,1
2022-10-21T07:29:45.014Z,0.92
2022-10-21T07:30:45.010Z,0.9
2022-10-21T07:31:45.017Z,0.9
2022-10-21T07:32:45.016Z,1
2022-10-21T07:33:45.018Z,1.11
2022-10-21T07:34:45.004Z,1.72
2022-10-21T07:35:45.035Z,1.37
2022-10-21T07:36:45.012Z,1.33
2022-10-21T07:37:45.015Z,1.01
2022-10-21T07:38:45.023Z,1.02
2022-10-21T07:39:45.022Z,1.07
2022-10-21T07:40:45.031Z,1.07
2022-10-21T07:41:45.027Z,1.12
2022-10-21T07:42:45.021Z,1.35
2022-10-21T07:43:45.016Z,1.7
2022-10-21T07:44:45.018Z,1.62
2022-10-21T07:45:45.025Z,1.67
2022-10-21T07:46:45.020Z,1.41
2022-10-21T07:47:45.019Z,1.66
2022-10-21T07:48:45.021Z,2.21
2022-10-21T07:49:45.022Z,2.9
2022-10-21T07:50:45.016Z,2.85
2022-10-21T07:51:45.011Z,2.74
2022-10-21T07:52:51.790Z,3.14
2022-10-21T07:53:45.017Z,3.32
2022-10-21T07:54:45.021Z,2.98
2022-10-21T07:55:45.032Z,1.88
2022-10-21T07:56:45.023Z,2.6
2022-10-21T07:57:45.012Z,2.37
2022-10-21T07:58:45.004Z,1.95
2022-10-21T07:59:45.008Z,2.12
2022-10-21T08:00:45.065Z,1.39
2022-10-21T08:01:45.215Z,1.86
2022-10-21T08:02:45.012Z,1.74
2022-10-21T08:03:45.004Z,1.57
2022-10-21T08:04:45.015Z,1.73
2022-10-21T08:05:45.022Z,1.82
2022-10-21T08:06:45.012Z,1.89
2022-10-21T08:07:45.092Z,2.15
2022-10-21T08:08:45.093Z,2
2022-10-21T08:09:45.005Z,1.79
2022-10-21T08:10:45.048Z,2.4
2022-10-21T08:11:45.027Z,2.4
2022-10-21T08:12:45.025Z,2.36
2022-10-21T08:13:45.012Z,1.59
2022-10-21T08:14:45.008Z,1.99
2022-10-21T08:15:45.019Z,1.71
2022-10-21T08:16:45.005Z,1.52
2022-10-21T08:17:45.005Z,1.38
2022-10-21T08:18:45.001Z,1.32
2022-10-21T08:19:45.059Z,1.31
2022-10-21T08:20:45.021Z,1.3
2022-10-21T08:21:45.007Z,1.31
2022-10-21T08:22:44.994Z,1.31
2022-10-21T08:23:45.000Z,1.33
2022-10-21T08:24:44.996Z,1.46
2022-10-21T08:25:45.015Z,1.39
2022-10-21T08:26:45.017Z,1.36
2022-10-21T08:27:45.000Z,1.3
2022-10-21T08:28:45.045Z,1.32
2022-10-21T08:29:44.997Z,1.32
2022-10-21T08:30:45.005Z,1.23
2022-10-21T08:31:45.003Z,1.17
2022-10-21T08:32:45.019Z,1.17
2022-10-21T08:33:44.997Z,1.18
2022-10-21T08:34:45.029Z,1.24
2022-10-21T08:35:45.015Z,1.24
2022-10-21T08:36:45.003Z,1.16
2022-10-21T08:37:44.999Z,1.11
2022-10-21T08:38:45.009Z,1.11
2022-10-21T08:39:45.006Z,1.08
2022-10-21T08:40:45.064Z,1.04
2022-10-21T08:41:45.016Z,1.02
2022-10-21T08:42:45.006Z,1
2022-10-21T08:43:45.024Z,0.99
2022-10-21T08:44:45.014Z,0.98
2022-10-21T08:45:45.027Z,0.99
2022-10-21T08:46:45.010Z,0.99
2022-10-21T08:47:45.019Z,1.01
2022-10-21T08:48:45.009Z,1.03
2022-10-21T08:49:45.023Z,1.07
2022-10-21T08:50:45.097Z,1.14
2022-10-21T08:51:45.014Z,1.16
2022-10-21T08:52:45.011Z,1.13
2022-10-21T08:53:45.018Z,1.07
2022-10-21T08:54:45.128Z,1.03
2022-10-21T08:55:45.028Z,1.03
2022-10-21T08:56:45.030Z,1.01
2022-10-21T08:57:45.074Z,1.03
2022-10-21T08:58:45.049Z,1.12
2022-10-21T08:59:45.007Z,1.2
2022-10-21T09:00:45.026Z,1.85
2022-10-21T09:01:45.016Z,1.49
2022-10-21T09:02:45.081Z,1.45
2022-10-21T09:03:45.020Z,1.33
2022-10-21T09:04:45.024Z,1.29
2022-10-21T09:05:45.032Z,1.43
2022-10-21T09:06:45.015Z,1.45
2022-10-21T09:07:45.006Z,1.68
2022-10-21T09:08:45.082Z,2.12
2022-10-21T09:09:45.012Z,4.11
2022-10-21T09:10:45.029Z,5.14
2022-10-21T09:11:45.032Z,5.14
2022-10-21T09:12:45.011Z,5.11
2022-10-21T09:13:45.015Z,4.97
2022-10-21T09:14:45.010Z,4.97
2022-10-21T09:15:45.035Z,5.05
2022-10-21T09:16:45.023Z,3.64
2022-10-21T09:17:45.022Z,3.51
2022-10-21T09:18:45.009Z,2.36
2022-10-21T09:19:44.996Z,3.25
2022-10-21T09:21:29.463Z,2.47
2022-10-21T09:22:35.371Z,1.89
2022-10-21T09:23:28.416Z,2.21
2022-10-21T09:24:28.272Z,2.33
2022-10-21T09:25:28.275Z,2.26
2022-10-21T09:26:30.284Z,2.24
2022-10-21T09:27:51.488Z,2.67
2022-10-21T09:28:28.262Z,2.48
2022-10-21T09:29:28.263Z,2.59
2022-10-21T09:30:28.263Z,2.59
2022-10-21T09:31:28.256Z,3.04
2022-10-21T09:33:50.410Z,3.26
2022-10-21T09:34:49.360Z,3.25
2022-10-21T09:35:49.358Z,3.19
2022-10-21T09:36:49.364Z,2.53
2022-10-21T09:37:49.344Z,3.01
2022-10-21T09:38:49.439Z,2.69
2022-10-21T09:39:49.343Z,2.97
2022-10-21T09:40:49.349Z,4.16
2022-10-21T09:41:49.340Z,4.4
2022-10-21T09:42:57.832Z,4.4
2022-10-21T09:43:56.887Z,3.36
2022-10-21T09:44:56.871Z,3.04
2022-10-21T09:46:16.811Z,2.75
2022-10-21T09:47:15.818Z,2.92
2022-10-21T09:48:15.802Z,3.35
2022-10-21T09:49:41.991Z,3.35
2022-10-21T09:50:29.281Z,3.66
2022-10-21T09:51:27.504Z,2.83
2022-10-21T09:52:27.486Z,2.49
2022-10-21T09:53:27.482Z,1.98
2022-10-21T09:54:27.470Z,1.88
2022-10-21T09:55:35.703Z,1.78
2022-10-21T09:56:34.796Z,1.66
2022-10-21T09:58:43.791Z,1.45
2022-10-21T10:00:37.883Z,1.36
2022-10-21T10:01:36.884Z,1.55
2022-10-21T10:02:37.080Z,1.72
2022-10-21T10:03:36.751Z,2.03
2022-10-21T10:04:36.750Z,2.6
2022-10-21T10:05:36.743Z,2.74
2022-10-21T10:06:36.771Z,3.96
2022-10-21T10:07:36.755Z,4.26
2022-10-21T10:08:36.886Z,3.82
2022-10-21T10:09:36.732Z,3.72
2022-10-21T10:10:36.747Z,3.93
2022-10-21T10:11:36.766Z,3.93
2022-10-21T10:12:37.006Z,1.95
2022-10-21T10:13:36.762Z,1.43
2022-10-21T10:14:36.757Z,1.31
2022-10-21T10:15:36.818Z,1.24
2022-10-21T10:16:36.747Z,1.21
2022-10-21T10:17:36.742Z,1.19
2022-10-21T10:18:36.741Z,1.17
2022-10-21T10:20:36.747Z,1.17
2022-10-21T10:21:36.759Z,1.21
2022-10-21T10:22:36.962Z,1.25
2022-10-21T10:23:36.744Z,1.28
2022-10-21T10:24:36.738Z,1.38
2022-10-21T10:25:36.759Z,1.45
2022-10-21T10:26:36.748Z,1.47
2022-10-21T10:27:36.740Z,1.53
2022-10-21T10:28:36.794Z,1.8
2022-10-21T10:29:36.744Z,2.62
2022-10-21T10:30:36.743Z,2.13
2022-10-21T10:31:36.750Z,1.89
2022-10-21T10:32:36.993Z,1.99
2022-10-21T10:33:36.736Z,2.1
2022-10-21T10:34:36.746Z,3.01
2022-10-21T10:35:36.730Z,2.81
2022-10-21T10:36:36.752Z,1.96
2022-10-21T10:37:36.783Z,1.84
2022-10-21T10:38:36.738Z,1.69
2022-10-21T10:39:36.742Z,1.63
2022-10-21T10:40:36.731Z,1.63
2022-10-21T10:41:36.766Z,1.47
2022-10-21T10:42:37.172Z,1.36
2022-10-21T10:43:36.754Z,1.34
2022-10-21T10:44:36.742Z,1.31
2022-10-21T10:45:36.736Z,1.22
2022-10-21T10:46:36.845Z,1.12
2022-10-21T10:47:36.978Z,1.05
2022-10-21T10:48:36.727Z,0.98
2022-10-21T10:49:36.829Z,0.87
2022-10-21T10:50:36.765Z,0.77
2022-10-21T10:51:36.784Z,0.72
2022-10-21T10:52:36.714Z,0.7
2022-10-21T10:53:36.718Z,0.7
2022-10-21T10:54:36.723Z,0.71
2022-10-21T10:55:36.776Z,0.73
2022-10-21T10:56:36.756Z,0.74
2022-10-21T10:57:44.542Z,0.75
2022-10-21T10:58:36.752Z,0.75
2022-10-21T10:59:36.719Z,0.74
2022-10-21T11:00:36.721Z,0.73
2022-10-21T11:01:36.790Z,0.71
2022-10-21T11:02:36.720Z,0.7
2022-10-21T11:03:40.485Z,0.69
2022-10-21T11:04:36.739Z,0.69
2022-10-21T11:05:36.723Z,0.71
2022-10-21T11:06:36.741Z,0.74
2022-10-21T11:07:37.094Z,0.79
2022-10-21T11:08:36.814Z,0.86
2022-10-21T11:09:36.737Z,0.94
2022-10-21T11:10:36.734Z,1.01
2022-10-21T11:11:36.758Z,1.13
2022-10-21T11:12:36.740Z,1.88
2022-10-21T11:13:40.057Z,1.47
2022-10-21T11:14:36.735Z,1.55
2022-10-21T11:15:36.732Z,1.59
2022-10-21T11:16:50.434Z,1.58
2022-10-21T11:17:37.002Z,1.57
2022-10-21T11:18:36.799Z,1.55
2022-10-21T11:19:36.737Z,1.52
2022-10-21T11:20:36.735Z,1.45
2022-10-21T11:21:37.077Z,1.36
2022-10-21T11:22:36.729Z,1.29
2022-10-21T11:23:36.736Z,1.25
2022-10-21T11:24:36.736Z,1.31
2022-10-21T11:25:36.738Z,1.5
2022-10-21T11:26:36.747Z,1.76
2022-10-21T11:27:37.058Z,3.05
2022-10-21T11:28:36.752Z,2.27
2022-10-21T11:29:36.732Z,1.61
2022-10-21T11:30:36.726Z,1.65
2022-10-21T11:31:43.918Z,1.56
2022-10-21T11:32:36.736Z,2.07
2022-10-21T11:33:36.943Z,1.78
2022-10-21T11:34:36.741Z,1.62
2022-10-21T11:35:37.014Z,1.42
2022-10-21T11:36:36.752Z,1.34
2022-10-21T11:37:37.184Z,1.31
2022-10-21T11:38:36.726Z,1.35
2022-10-21T11:39:36.737Z,1.46
2022-10-21T11:40:36.718Z,1.46
2022-10-21T11:41:36.747Z,1.35
2022-10-21T11:42:37.393Z,1.34
2022-10-21T11:43:36.749Z,1.32
2022-10-21T11:44:36.735Z,1.23
2022-10-21T11:45:36.741Z,1.13
2022-10-21T11:47:38.929Z,1.09
2022-10-21T11:48:37.963Z,1.08
2022-10-21T11:49:37.968Z,1.05
2022-10-21T11:50:37.954Z,1.04
2022-10-21T11:51:38.291Z,1.09
2022-10-21T11:52:38.481Z,1.03
2022-10-21T11:53:38.387Z,1.03
2022-10-21T11:54:41.613Z,1.03
2022-10-21T11:55:37.956Z,1
2022-10-21T11:56:37.941Z,1
2022-10-21T11:57:37.959Z,0.93
2022-10-21T11:58:38.043Z,0.88
2022-10-21T11:59:37.930Z,0.87
2022-10-21T12:00:37.948Z,0.78
2022-10-21T12:01:37.975Z,0.78
2022-10-21T12:02:38.825Z,0.71
2022-10-21T12:03:37.930Z,0.66
2022-10-21T12:04:38.236Z,0.62
2022-10-21T12:05:37.994Z,0.59
2022-10-21T12:06:38.020Z,0.57
2022-10-21T12:07:37.953Z,0.54
2022-10-21T12:08:41.239Z,0.52
2022-10-21T12:09:37.943Z,0.49
2022-10-21T12:10:37.932Z,0.47
2022-10-21T12:11:38.346Z,0.46
2022-10-21T12:12:38.255Z,0.48
2022-10-21T12:13:37.954Z,0.5
2022-10-21T12:14:37.930Z,0.52
2022-10-21T12:15:37.932Z,0.53
2022-10-21T12:16:37.940Z,0.55
2022-10-21T12:18:37.943Z,0.58
2022-10-21T12:19:37.939Z,0.58
2022-10-21T12:20:37.926Z,0.56
2022-10-21T12:21:37.923Z,0.53
2022-10-21T12:22:38.285Z,0.5
2022-10-21T12:23:37.931Z,0.47
2022-10-21T12:24:37.924Z,0.44
2022-10-21T12:25:38.195Z,0.42
2022-10-21T12:27:45.407Z,0.37
2022-10-21T12:28:44.338Z,0.35
2022-10-21T12:29:44.299Z,0.35
2022-10-21T12:30:44.295Z,0.35
2022-10-21T12:31:44.290Z,0.34
2022-10-21T12:32:44.305Z,0.34
2022-10-21T12:33:44.283Z,0.33
2022-10-21T12:34:44.294Z,0.34
2022-10-21T12:35:44.349Z,0.34
2022-10-21T12:36:44.292Z,0.35
2022-10-21T12:37:44.308Z,0.35
2022-10-21T12:38:44.279Z,0.35
2022-10-21T12:39:44.295Z,0.36
2022-10-21T12:40:44.284Z,0.38
2022-10-21T12:41:44.292Z,0.39
2022-10-21T12:42:44.296Z,0.41
2022-10-21T12:43:44.303Z,0.44
2022-10-21T12:45:44.293Z,0.45
2022-10-21T12:46:44.287Z,0.45
2022-10-21T12:47:44.296Z,0.44
2022-10-21T12:48:44.284Z,0.42
2022-10-21T12:49:44.277Z,0.4
2022-10-21T12:50:44.278Z,0.39
2022-10-21T12:51:44.290Z,0.4
2022-10-21T12:52:44.297Z,0.4
2022-10-21T12:53:44.349Z,0.4
2022-10-21T12:54:44.314Z,0.41
2022-10-21T12:55:44.307Z,0.42
2022-10-21T12:56:44.282Z,0.43
2022-10-21T12:57:44.359Z,0.45
2022-10-21T12:58:44.296Z,0.48
2022-10-21T12:59:44.279Z,0.52
2022-10-21T13:00:44.374Z,0.55
2022-10-21T13:01:44.296Z,0.55
2022-10-21T13:02:47.190Z,0.57
2022-10-21T13:03:44.286Z,0.56
2022-10-21T13:04:44.283Z,0.56
2022-10-21T13:05:44.284Z,0.56
2022-10-21T13:06:44.278Z,0.54
2022-10-21T13:07:44.321Z,0.51
2022-10-21T13:08:44.337Z,0.48
2022-10-21T13:09:44.297Z,0.46
2022-10-21T13:10:44.265Z,0.45
2022-10-21T13:11:44.279Z,0.44
2022-10-21T13:12:44.291Z,0.42
2022-10-21T13:13:44.293Z,0.41
2022-10-21T13:14:44.279Z,0.4
2022-10-21T13:15:44.272Z,0.4
2022-10-21T13:16:44.292Z,0.4
2022-10-21T13:17:44.310Z,0.39
2022-10-21T13:18:44.269Z,0.38
2022-10-21T13:19:44.267Z,0.37
2022-10-21T13:20:44.270Z,0.36
2022-10-21T13:21:44.262Z,0.35
2022-10-21T13:22:44.329Z,0.34
2022-10-21T13:23:44.270Z,0.35
2022-10-21T13:24:44.274Z,0.35
2022-10-21T13:25:44.273Z,0.34
2022-10-21T13:26:44.290Z,0.32
2022-10-21T13:27:44.318Z,0.3
2022-10-21T13:28:44.323Z,0.27
2022-10-21T13:29:44.267Z,0.25
2022-10-21T13:30:44.283Z,0.24
2022-10-21T13:31:44.323Z,0.24
2022-10-21T13:32:44.279Z,0.26
2022-10-21T13:33:44.275Z,0.27
2022-10-21T13:34:44.324Z,0.28
2022-10-21T13:35:44.274Z,0.29
2022-10-21T13:36:44.282Z,0.29
2022-10-21T13:37:44.311Z,0.3
2022-10-21T13:38:44.289Z,0.29
2022-10-21T13:39:44.307Z,0.29
2022-10-21T13:40:44.327Z,0.28
2022-10-21T13:41:44.280Z,0.27
2022-10-21T13:42:44.302Z,0.27
2022-10-21T13:43:44.323Z,0.27
2022-10-21T13:44:44.282Z,0.26
2022-10-21T13:45:44.280Z,0.25
2022-10-21T13:46:44.528Z,0.25
2022-10-21T13:47:44.284Z,0.22
2022-10-21T13:48:44.278Z,0.22
2022-10-21T13:49:44.268Z,0.22
2022-10-21T13:50:44.282Z,0.22
2022-10-21T13:51:44.283Z,0.22
2022-10-21T13:52:44.290Z,0.22
2022-10-21T13:53:44.261Z,0.22
2022-10-21T13:54:44.288Z,0.22
2022-10-21T13:55:44.262Z,0.22
2022-10-21T13:56:44.265Z,0.22
2022-10-21T13:57:44.290Z,0.22
2022-10-21T13:58:44.299Z,0.22
2022-10-21T13:59:44.260Z,0.22
2022-10-21T14:00:44.313Z,0.22
2022-10-21T14:01:44.282Z,0.22
2022-10-21T14:02:44.306Z,0.22
2022-10-21T14:03:44.342Z,0.22